sensor_id;sensor_type;location;lat;lon;timestamp;P1;durP1;ratioP1;P2;durP2;ratioP2
81365;SDS011;70822;51.990;22.766;2023-09-19T00:08:49;9.73;;;5.23;;
81365;SDS011;70822;51.990;22.766;2023-09-19T00:23:55;10.33;;;5.70;;
81365;SDS011;70822;51.990;22.766;2023-09-19T00:54:04;11.70;;;6.37;;
81365;SDS011;70822;51.990;22.766;2023-09-19T01:09:11;12.70;;;7.37;;
81365;SDS011;70822;51.990;22.766;2023-09-19T01:24:28;10.77;;;5.67;;
81365;SDS011;70822;51.990;22.766;2023-09-19T01:39:50;10.73;;;6.23;;
81365;SDS011;70822;51.990;22.766;2023-09-19T01:55:00;15.40;;;6.73;;
81365;SDS011;70822;51.990;22.766;2023-09-19T02:10:11;11.13;;;6.27;;
81365;SDS011;70822;51.990;22.766;2023-09-19T02:25:16;19.47;;;8.47;;
81365;SDS011;70822;51.990;22.766;2023-09-19T02:40:21;11.07;;;6.20;;
81365;SDS011;70822;51.990;22.766;2023-09-19T02:55:26;17.50;;;8.63;;
81365;SDS011;70822;51.990;22.766;2023-09-19T03:10:33;15.23;;;7.37;;
81365;SDS011;70822;51.990;22.766;2023-09-19T03:25:40;13.57;;;7.20;;
81365;SDS011;70822;51.990;22.766;2023-09-19T03:40:46;12.00;;;7.57;;
81365;SDS011;70822;51.990;22.766;2023-09-19T03:55:51;11.27;;;6.90;;
81365;SDS011;70822;51.990;22.766;2023-09-19T04:10:57;11.30;;;6.60;;
81365;SDS011;70822;51.990;22.766;2023-09-19T04:26:02;12.10;;;6.90;;
81365;SDS011;70822;51.990;22.766;2023-09-19T04:41:08;12.53;;;7.83;;
81365;SDS011;70822;51.990;22.766;2023-09-19T04:56:13;9.20;;;5.77;;
81365;SDS011;70822;51.990;22.766;2023-09-19T05:11:19;12.63;;;6.20;;
81365;SDS011;70822;51.990;22.766;2023-09-19T05:26:28;16.90;;;9.27;;
81365;SDS011;70822;51.990;22.766;2023-09-19T05:41:33;12.47;;;6.67;;
81365;SDS011;70822;51.990;22.766;2023-09-19T05:56:39;12.77;;;7.60;;
81365;SDS011;70822;51.990;22.766;2023-09-19T06:11:43;10.90;;;6.23;;
81365;SDS011;70822;51.990;22.766;2023-09-19T06:26:48;12.10;;;6.50;;
81365;SDS011;70822;51.990;22.766;2023-09-19T06:41:54;12.10;;;6.00;;
81365;SDS011;70822;51.990;22.766;2023-09-19T06:56:59;15.77;;;8.83;;
81365;SDS011;70822;51.990;22.766;2023-09-19T07:27:09;9.03;;;5.63;;
81365;SDS011;70822;51.990;22.766;2023-09-19T07:42:13;8.63;;;5.90;;
81365;SDS011;70822;51.990;22.766;2023-09-19T07:57:21;9.30;;;5.07;;
81365;SDS011;70822;51.990;22.766;2023-09-19T08:12:26;8.40;;;5.70;;
81365;SDS011;70822;51.990;22.766;2023-09-19T08:27:31;10.53;;;5.30;;
81365;SDS011;70822;51.990;22.766;2023-09-19T08:42:48;7.77;;;5.23;;
81365;SDS011;70822;51.990;22.766;2023-09-19T08:57:55;11.60;;;5.83;;
81365;SDS011;70822;51.990;22.766;2023-09-19T09:13:05;7.83;;;5.50;;
81365;SDS011;70822;51.990;22.766;2023-09-19T09:28:10;7.70;;;5.17;;
81365;SDS011;70822;51.990;22.766;2023-09-19T09:43:32;8.17;;;4.73;;
81365;SDS011;70822;51.990;22.766;2023-09-19T09:58:49;8.50;;;5.37;;
81365;SDS011;70822;51.990;22.766;2023-09-19T10:14:00;9.17;;;5.03;;
81365;SDS011;70822;51.990;22.766;2023-09-19T10:29:10;10.50;;;8.40;;
81365;SDS011;70822;51.990;22.766;2023-09-19T10:44:17;6.53;;;5.07;;
81365;SDS011;70822;51.990;22.766;2023-09-19T10:59:27;9.27;;;6.47;;
81365;SDS011;70822;51.990;22.766;2023-09-19T11:14:39;11.60;;;6.67;;
81365;SDS011;70822;51.990;22.766;2023-09-19T11:29:45;11.93;;;7.63;;
81365;SDS011;70822;51.990;22.766;2023-09-19T11:44:51;9.37;;;6.50;;
81365;SDS011;70822;51.990;22.766;2023-09-19T11:59:56;14.37;;;7.83;;
81365;SDS011;70822;51.990;22.766;2023-09-19T12:15:02;10.93;;;7.60;;
81365;SDS011;70822;51.990;22.766;2023-09-19T12:30:08;13.90;;;8.73;;
81365;SDS011;70822;51.990;22.766;2023-09-19T12:45:19;15.07;;;9.07;;
81365;SDS011;70822;51.990;22.766;2023-09-19T13:00:33;12.87;;;8.93;;
81365;SDS011;70822;51.990;22.766;2023-09-19T13:15:53;12.47;;;8.13;;
81365;SDS011;70822;51.990;22.766;2023-09-19T13:30:59;14.53;;;8.90;;
81365;SDS011;70822;51.990;22.766;2023-09-19T13:46:04;12.10;;;8.37;;
81365;SDS011;70822;51.990;22.766;2023-09-19T14:01:11;15.80;;;9.00;;
81365;SDS011;70822;51.990;22.766;2023-09-19T14:16:19;13.97;;;8.97;;
81365;SDS011;70822;51.990;22.766;2023-09-19T14:31:26;15.27;;;8.90;;
81365;SDS011;70822;51.990;22.766;2023-09-19T15:01:36;18.60;;;10.40;;
81365;SDS011;70822;51.990;22.766;2023-09-19T15:16:42;15.90;;;10.30;;
81365;SDS011;70822;51.990;22.766;2023-09-19T15:31:48;18.87;;;9.97;;
81365;SDS011;70822;51.990;22.766;2023-09-19T15:46:53;13.43;;;7.17;;
81365;SDS011;70822;51.990;22.766;2023-09-19T16:01:58;10.10;;;5.03;;
81365;SDS011;70822;51.990;22.766;2023-09-19T16:17:03;6.10;;;4.23;;
81365;SDS011;70822;51.990;22.766;2023-09-19T16:32:08;4.80;;;2.83;;
81365;SDS011;70822;51.990;22.766;2023-09-19T16:47:12;7.10;;;3.43;;
81365;SDS011;70822;51.990;22.766;2023-09-19T17:02:17;5.93;;;3.67;;
81365;SDS011;70822;51.990;22.766;2023-09-19T17:17:22;9.60;;;4.40;;
81365;SDS011;70822;51.990;22.766;2023-09-19T17:32:27;7.10;;;4.40;;
81365;SDS011;70822;51.990;22.766;2023-09-19T17:47:31;7.53;;;4.10;;
81365;SDS011;70822;51.990;22.766;2023-09-19T18:02:37;7.30;;;3.63;;
81365;SDS011;70822;51.990;22.766;2023-09-19T18:17:42;5.97;;;4.27;;
81365;SDS011;70822;51.990;22.766;2023-09-19T18:32:47;8.23;;;4.30;;
81365;SDS011;70822;51.990;22.766;2023-09-19T18:47:55;8.70;;;5.07;;
81365;SDS011;70822;51.990;22.766;2023-09-19T19:03:00;13.10;;;6.43;;
81365;SDS011;70822;51.990;22.766;2023-09-19T19:18:05;14.13;;;8.87;;
81365;SDS011;70822;51.990;22.766;2023-09-19T19:33:10;19.53;;;9.10;;
81365;SDS011;70822;51.990;22.766;2023-09-19T19:48:15;20.20;;;10.80;;
81365;SDS011;70822;51.990;22.766;2023-09-19T20:03:20;22.53;;;11.60;;
81365;SDS011;70822;51.990;22.766;2023-09-19T20:18:25;21.43;;;11.73;;
81365;SDS011;70822;51.990;22.766;2023-09-19T20:33:30;20.37;;;11.33;;
81365;SDS011;70822;51.990;22.766;2023-09-19T20:48:35;21.30;;;10.93;;
81365;SDS011;70822;51.990;22.766;2023-09-19T21:03:40;17.43;;;10.73;;
81365;SDS011;70822;51.990;22.766;2023-09-19T21:18:45;17.53;;;9.57;;
81365;SDS011;70822;51.990;22.766;2023-09-19T21:33:51;14.37;;;9.60;;
81365;SDS011;70822;51.990;22.766;2023-09-19T21:48:55;17.43;;;9.20;;
81365;SDS011;70822;51.990;22.766;2023-09-19T22:04:06;12.83;;;7.87;;
81365;SDS011;70822;51.990;22.766;2023-09-19T22:19:14;13.30;;;8.00;;
81365;SDS011;70822;51.990;22.766;2023-09-19T22:34:19;9.83;;;7.00;;
81365;SDS011;70822;51.990;22.766;2023-09-19T22:49:24;13.20;;;7.67;;
81365;SDS011;70822;51.990;22.766;2023-09-19T23:04:30;13.13;;;7.43;;
81365;SDS011;70822;51.990;22.766;2023-09-19T23:19:38;16.90;;;9.63;;
81365;SDS011;70822;51.990;22.766;2023-09-19T23:34:43;13.30;;;8.60;;
81365;SDS011;70822;51.990;22.766;2023-09-19T23:49:51;12.37;;;7.90;;
